sensor_id;sensor_type;location;lat;lon;timestamp;P1;durP1;ratioP1;P2;durP2;ratioP2
12871;SDS011;6504;53.766;9.626;2022-11-20T00:01:04;4.87;;;3.50;;
12871;SDS011;6504;53.766;9.626;2022-11-20T00:03:33;4.23;;;3.50;;
12871;SDS011;6504;53.766;9.626;2022-11-20T00:06:01;4.00;;;3.60;;
12871;SDS011;6504;53.766;9.626;2022-11-20T00:08:30;3.53;;;3.23;;
12871;SDS011;6504;53.766;9.626;2022-11-20T00:11:01;3.83;;;3.53;;
12871;SDS011;6504;53.766;9.626;2022-11-20T00:13:30;3.87;;;3.47;;
12871;SDS011;6504;53.766;9.626;2022-11-20T00:16:01;3.77;;;3.23;;
12871;SDS011;6504;53.766;9.626;2022-11-20T00:18:32;4.70;;;3.80;;
12871;SDS011;6504;53.766;9.626;2022-11-20T00:21:00;4.10;;;3.17;;
12871;SDS011;6504;53.766;9.626;2022-11-20T00:23:29;3.73;;;3.43;;
12871;SDS011;6504;53.766;9.626;2022-11-20T00:26:00;4.10;;;3.80;;
12871;SDS011;6504;53.766;9.626;2022-11-20T00:28:29;4.03;;;3.40;;
12871;SDS011;6504;53.766;9.626;2022-11-20T00:31:02;4.70;;;3.57;;
12871;SDS011;6504;53.766;9.626;2022-11-20T00:33:31;4.90;;;3.60;;
12871;SDS011;6504;53.766;9.626;2022-11-20T00:35:59;3.93;;;3.63;;
12871;SDS011;6504;53.766;9.626;2022-11-20T00:38:29;4.10;;;3.70;;
12871;SDS011;6504;53.766;9.626;2022-11-20T00:40:57;4.13;;;3.63;;
12871;SDS011;6504;53.766;9.626;2022-11-20T00:43:25;4.50;;;3.27;;
12871;SDS011;6504;53.766;9.626;2022-11-20T00:45:57;3.97;;;3.37;;
12871;SDS011;6504;53.766;9.626;2022-11-20T00:48:27;3.80;;;3.50;;
12871;SDS011;6504;53.766;9.626;2022-11-20T00:50:55;4.10;;;3.70;;
12871;SDS011;6504;53.766;9.626;2022-11-20T00:53:23;6.33;;;3.73;;
12871;SDS011;6504;53.766;9.626;2022-11-20T00:55:52;4.20;;;3.40;;
12871;SDS011;6504;53.766;9.626;2022-11-20T00:58:21;3.87;;;3.20;;
12871;SDS011;6504;53.766;9.626;2022-11-20T01:00:50;4.87;;;3.53;;
12871;SDS011;6504;53.766;9.626;2022-11-20T01:03:19;3.93;;;3.53;;
12871;SDS011;6504;53.766;9.626;2022-11-20T01:05:53;3.60;;;3.30;;
12871;SDS011;6504;53.766;9.626;2022-11-20T01:08:21;3.80;;;3.43;;
12871;SDS011;6504;53.766;9.626;2022-11-20T01:10:49;3.80;;;3.40;;
12871;SDS011;6504;53.766;9.626;2022-11-20T01:13:17;3.60;;;3.10;;
12871;SDS011;6504;53.766;9.626;2022-11-20T01:16:03;3.77;;;3.47;;
12871;SDS011;6504;53.766;9.626;2022-11-20T01:18:32;3.80;;;3.40;;
12871;SDS011;6504;53.766;9.626;2022-11-20T01:21:02;3.60;;;3.27;;
12871;SDS011;6504;53.766;9.626;2022-11-20T01:23:31;3.40;;;3.10;;
12871;SDS011;6504;53.766;9.626;2022-11-20T01:26:00;3.80;;;3.33;;
12871;SDS011;6504;53.766;9.626;2022-11-20T01:28:29;4.20;;;3.40;;
12871;SDS011;6504;53.766;9.626;2022-11-20T01:30:57;3.43;;;3.13;;
12871;SDS011;6504;53.766;9.626;2022-11-20T01:33:26;3.90;;;3.50;;
12871;SDS011;6504;53.766;9.626;2022-11-20T01:36:02;4.43;;;3.17;;
12871;SDS011;6504;53.766;9.626;2022-11-20T01:38:33;3.87;;;3.33;;
12871;SDS011;6504;53.766;9.626;2022-11-20T01:41:01;3.50;;;3.20;;
12871;SDS011;6504;53.766;9.626;2022-11-20T01:43:30;3.70;;;3.00;;
12871;SDS011;6504;53.766;9.626;2022-11-20T01:46:01;4.10;;;3.30;;
12871;SDS011;6504;53.766;9.626;2022-11-20T01:48:42;4.67;;;3.23;;
12871;SDS011;6504;53.766;9.626;2022-11-20T01:51:19;3.77;;;3.47;;
12871;SDS011;6504;53.766;9.626;2022-11-20T01:53:51;3.27;;;3.03;;
12871;SDS011;6504;53.766;9.626;2022-11-20T01:56:21;4.00;;;3.60;;
12871;SDS011;6504;53.766;9.626;2022-11-20T01:58:51;4.23;;;3.43;;
12871;SDS011;6504;53.766;9.626;2022-11-20T02:01:21;4.33;;;3.60;;
12871;SDS011;6504;53.766;9.626;2022-11-20T02:03:49;5.27;;;3.70;;
12871;SDS011;6504;53.766;9.626;2022-11-20T02:06:21;3.50;;;3.20;;
12871;SDS011;6504;53.766;9.626;2022-11-20T02:08:52;4.37;;;3.57;;
12871;SDS011;6504;53.766;9.626;2022-11-20T02:11:21;4.73;;;3.40;;
12871;SDS011;6504;53.766;9.626;2022-11-20T02:13:49;3.27;;;2.97;;
12871;SDS011;6504;53.766;9.626;2022-11-20T02:16:19;3.70;;;3.40;;
12871;SDS011;6504;53.766;9.626;2022-11-20T02:18:49;3.47;;;3.17;;
12871;SDS011;6504;53.766;9.626;2022-11-20T02:21:25;3.83;;;3.43;;
12871;SDS011;6504;53.766;9.626;2022-11-20T02:24:02;3.50;;;3.20;;
12871;SDS011;6504;53.766;9.626;2022-11-20T02:26:33;3.30;;;3.00;;
12871;SDS011;6504;53.766;9.626;2022-11-20T02:29:07;3.77;;;3.40;;
12871;SDS011;6504;53.766;9.626;2022-11-20T02:31:36;3.87;;;3.30;;
12871;SDS011;6504;53.766;9.626;2022-11-20T02:34:06;3.17;;;2.87;;
12871;SDS011;6504;53.766;9.626;2022-11-20T02:36:35;4.33;;;3.63;;
12871;SDS011;6504;53.766;9.626;2022-11-20T02:39:07;4.83;;;3.30;;
12871;SDS011;6504;53.766;9.626;2022-11-20T02:41:37;3.87;;;3.57;;
12871;SDS011;6504;53.766;9.626;2022-11-20T02:44:05;3.40;;;3.10;;
12871;SDS011;6504;53.766;9.626;2022-11-20T02:46:33;3.53;;;2.90;;
12871;SDS011;6504;53.766;9.626;2022-11-20T02:49:02;3.90;;;3.03;;
12871;SDS011;6504;53.766;9.626;2022-11-20T02:51:31;4.30;;;3.47;;
12871;SDS011;6504;53.766;9.626;2022-11-20T02:53:59;3.77;;;3.13;;
12871;SDS011;6504;53.766;9.626;2022-11-20T02:56:29;3.77;;;3.20;;
12871;SDS011;6504;53.766;9.626;2022-11-20T02:58:57;3.40;;;3.20;;
12871;SDS011;6504;53.766;9.626;2022-11-20T03:01:25;3.73;;;3.27;;
12871;SDS011;6504;53.766;9.626;2022-11-20T03:03:53;3.70;;;3.40;;
12871;SDS011;6504;53.766;9.626;2022-11-20T03:06:22;5.43;;;3.80;;
12871;SDS011;6504;53.766;9.626;2022-11-20T03:08:50;3.60;;;3.30;;
12871;SDS011;6504;53.766;9.626;2022-11-20T03:11:18;4.23;;;3.60;;
12871;SDS011;6504;53.766;9.626;2022-11-20T03:13:47;4.00;;;3.60;;
12871;SDS011;6504;53.766;9.626;2022-11-20T03:16:16;3.50;;;3.20;;
12871;SDS011;6504;53.766;9.626;2022-11-20T03:18:45;4.00;;;3.60;;
12871;SDS011;6504;53.766;9.626;2022-11-20T03:21:14;3.77;;;3.47;;
12871;SDS011;6504;53.766;9.626;2022-11-20T03:23:43;3.77;;;3.40;;
12871;SDS011;6504;53.766;9.626;2022-11-20T03:26:13;3.73;;;3.43;;
12871;SDS011;6504;53.766;9.626;2022-11-20T03:28:42;3.90;;;3.60;;
12871;SDS011;6504;53.766;9.626;2022-11-20T03:31:16;3.57;;;3.23;;
12871;SDS011;6504;53.766;9.626;2022-11-20T03:33:45;3.53;;;3.23;;
12871;SDS011;6504;53.766;9.626;2022-11-20T03:36:14;3.53;;;3.20;;
12871;SDS011;6504;53.766;9.626;2022-11-20T03:38:43;3.50;;;3.20;;
12871;SDS011;6504;53.766;9.626;2022-11-20T03:41:12;3.47;;;3.17;;
12871;SDS011;6504;53.766;9.626;2022-11-20T03:43:42;3.63;;;3.33;;
12871;SDS011;6504;53.766;9.626;2022-11-20T03:46:16;3.57;;;3.07;;
12871;SDS011;6504;53.766;9.626;2022-11-20T03:48:45;3.43;;;3.13;;
12871;SDS011;6504;53.766;9.626;2022-11-20T03:51:18;3.40;;;3.10;;
12871;SDS011;6504;53.766;9.626;2022-11-20T03:53:47;3.60;;;3.10;;
12871;SDS011;6504;53.766;9.626;2022-11-20T03:56:17;4.17;;;3.20;;
12871;SDS011;6504;53.766;9.626;2022-11-20T03:58:48;3.63;;;3.33;;
12871;SDS011;6504;53.766;9.626;2022-11-20T04:01:17;4.17;;;3.20;;
12871;SDS011;6504;53.766;9.626;2022-11-20T04:03:47;3.10;;;2.80;;
12871;SDS011;6504;53.766;9.626;2022-11-20T04:06:18;3.40;;;3.10;;
12871;SDS011;6504;53.766;9.626;2022-11-20T04:08:48;4.40;;;2.63;;
12871;SDS011;6504;53.766;9.626;2022-11-20T04:11:20;4.20;;;3.70;;
12871;SDS011;6504;53.766;9.626;2022-11-20T04:13:51;4.67;;;3.27;;
12871;SDS011;6504;53.766;9.626;2022-11-20T04:16:21;4.77;;;3.10;;
12871;SDS011;6504;53.766;9.626;2022-11-20T04:18:51;3.30;;;2.90;;
12871;SDS011;6504;53.766;9.626;2022-11-20T04:21:20;3.30;;;3.00;;
12871;SDS011;6504;53.766;9.626;2022-11-20T04:23:48;3.20;;;2.93;;
12871;SDS011;6504;53.766;9.626;2022-11-20T04:26:16;3.27;;;2.97;;
12871;SDS011;6504;53.766;9.626;2022-11-20T04:28:44;3.53;;;3.10;;
12871;SDS011;6504;53.766;9.626;2022-11-20T04:31:15;2.80;;;2.60;;
12871;SDS011;6504;53.766;9.626;2022-11-20T04:33:44;3.33;;;3.03;;
12871;SDS011;6504;53.766;9.626;2022-11-20T04:36:13;3.60;;;3.30;;
12871;SDS011;6504;53.766;9.626;2022-11-20T04:38:42;3.90;;;3.40;;
12871;SDS011;6504;53.766;9.626;2022-11-20T04:41:17;4.40;;;2.97;;
12871;SDS011;6504;53.766;9.626;2022-11-20T04:43:47;3.73;;;3.37;;
12871;SDS011;6504;53.766;9.626;2022-11-20T04:46:17;4.53;;;3.00;;
12871;SDS011;6504;53.766;9.626;2022-11-20T04:48:46;3.27;;;2.97;;
12871;SDS011;6504;53.766;9.626;2022-11-20T04:51:14;3.23;;;2.93;;
12871;SDS011;6504;53.766;9.626;2022-11-20T04:53:43;3.47;;;3.00;;
12871;SDS011;6504;53.766;9.626;2022-11-20T04:56:11;3.33;;;2.90;;
12871;SDS011;6504;53.766;9.626;2022-11-20T04:58:40;2.77;;;2.57;;
12871;SDS011;6504;53.766;9.626;2022-11-20T05:01:09;2.93;;;2.73;;
12871;SDS011;6504;53.766;9.626;2022-11-20T05:03:40;3.47;;;2.87;;
12871;SDS011;6504;53.766;9.626;2022-11-20T05:06:09;2.80;;;2.60;;
12871;SDS011;6504;53.766;9.626;2022-11-20T05:08:38;3.40;;;3.07;;
12871;SDS011;6504;53.766;9.626;2022-11-20T05:11:07;3.57;;;3.20;;
12871;SDS011;6504;53.766;9.626;2022-11-20T05:13:38;3.20;;;2.90;;
12871;SDS011;6504;53.766;9.626;2022-11-20T05:16:07;3.23;;;2.93;;
12871;SDS011;6504;53.766;9.626;2022-11-20T05:18:37;4.07;;;3.00;;
12871;SDS011;6504;53.766;9.626;2022-11-20T05:21:07;3.73;;;3.30;;
12871;SDS011;6504;53.766;9.626;2022-11-20T05:23:37;4.30;;;3.70;;
12871;SDS011;6504;53.766;9.626;2022-11-20T05:26:06;3.30;;;2.90;;
12871;SDS011;6504;53.766;9.626;2022-11-20T05:28:39;3.63;;;3.00;;
12871;SDS011;6504;53.766;9.626;2022-11-20T05:31:08;3.13;;;2.83;;
12871;SDS011;6504;53.766;9.626;2022-11-20T05:33:40;3.77;;;3.40;;
12871;SDS011;6504;53.766;9.626;2022-11-20T05:36:09;4.33;;;2.90;;
12871;SDS011;6504;53.766;9.626;2022-11-20T05:38:38;4.07;;;3.17;;
12871;SDS011;6504;53.766;9.626;2022-11-20T05:41:07;2.97;;;2.70;;
12871;SDS011;6504;53.766;9.626;2022-11-20T05:43:37;4.17;;;3.17;;
12871;SDS011;6504;53.766;9.626;2022-11-20T05:46:07;3.20;;;2.90;;
12871;SDS011;6504;53.766;9.626;2022-11-20T05:48:37;3.43;;;3.00;;
12871;SDS011;6504;53.766;9.626;2022-11-20T05:51:09;3.00;;;2.80;;
12871;SDS011;6504;53.766;9.626;2022-11-20T05:53:39;2.90;;;2.70;;
12871;SDS011;6504;53.766;9.626;2022-11-20T05:56:14;3.40;;;3.10;;
12871;SDS011;6504;53.766;9.626;2022-11-20T05:58:44;4.57;;;3.00;;
12871;SDS011;6504;53.766;9.626;2022-11-20T06:01:14;3.47;;;3.17;;
12871;SDS011;6504;53.766;9.626;2022-11-20T06:03:45;3.57;;;2.93;;
12871;SDS011;6504;53.766;9.626;2022-11-20T06:06:14;3.83;;;3.27;;
12871;SDS011;6504;53.766;9.626;2022-11-20T06:08:43;3.10;;;2.90;;
12871;SDS011;6504;53.766;9.626;2022-11-20T06:11:11;3.23;;;2.90;;
12871;SDS011;6504;53.766;9.626;2022-11-20T06:13:40;4.00;;;2.90;;
12871;SDS011;6504;53.766;9.626;2022-11-20T06:16:09;3.53;;;3.03;;
12871;SDS011;6504;53.766;9.626;2022-11-20T06:18:38;3.40;;;2.90;;
12871;SDS011;6504;53.766;9.626;2022-11-20T06:21:08;3.67;;;3.20;;
12871;SDS011;6504;53.766;9.626;2022-11-20T06:23:37;3.60;;;2.90;;
12871;SDS011;6504;53.766;9.626;2022-11-20T06:26:06;4.30;;;3.10;;
12871;SDS011;6504;53.766;9.626;2022-11-20T06:28:35;3.27;;;2.97;;
12871;SDS011;6504;53.766;9.626;2022-11-20T06:31:04;3.83;;;2.83;;
12871;SDS011;6504;53.766;9.626;2022-11-20T06:33:32;4.73;;;3.60;;
12871;SDS011;6504;53.766;9.626;2022-11-20T06:36:01;3.37;;;3.07;;
12871;SDS011;6504;53.766;9.626;2022-11-20T06:38:37;3.40;;;3.03;;
12871;SDS011;6504;53.766;9.626;2022-11-20T06:41:06;4.70;;;3.10;;
12871;SDS011;6504;53.766;9.626;2022-11-20T06:43:34;3.73;;;3.30;;
12871;SDS011;6504;53.766;9.626;2022-11-20T06:46:03;3.40;;;3.10;;
12871;SDS011;6504;53.766;9.626;2022-11-20T06:48:31;5.60;;;3.50;;
12871;SDS011;6504;53.766;9.626;2022-11-20T06:51:00;3.40;;;2.97;;
12871;SDS011;6504;53.766;9.626;2022-11-20T06:53:30;3.93;;;3.57;;
12871;SDS011;6504;53.766;9.626;2022-11-20T06:56:00;4.97;;;3.77;;
12871;SDS011;6504;53.766;9.626;2022-11-20T06:58:28;4.50;;;4.10;;
12871;SDS011;6504;53.766;9.626;2022-11-20T07:00:58;4.17;;;3.80;;
12871;SDS011;6504;53.766;9.626;2022-11-20T07:03:26;4.23;;;3.53;;
12871;SDS011;6504;53.766;9.626;2022-11-20T07:05:54;3.90;;;3.50;;
12871;SDS011;6504;53.766;9.626;2022-11-20T07:08:23;3.63;;;3.27;;
12871;SDS011;6504;53.766;9.626;2022-11-20T07:10:52;3.57;;;3.27;;
12871;SDS011;6504;53.766;9.626;2022-11-20T07:13:25;4.10;;;3.67;;
12871;SDS011;6504;53.766;9.626;2022-11-20T07:15:53;3.50;;;3.20;;
12871;SDS011;6504;53.766;9.626;2022-11-20T07:18:22;4.00;;;3.60;;
12871;SDS011;6504;53.766;9.626;2022-11-20T07:20:50;5.30;;;4.23;;
12871;SDS011;6504;53.766;9.626;2022-11-20T07:23:18;4.00;;;3.60;;
12871;SDS011;6504;53.766;9.626;2022-11-20T07:25:46;5.30;;;4.30;;
12871;SDS011;6504;53.766;9.626;2022-11-20T07:28:14;3.80;;;3.40;;
12871;SDS011;6504;53.766;9.626;2022-11-20T07:30:43;4.43;;;4.00;;
12871;SDS011;6504;53.766;9.626;2022-11-20T07:33:17;3.93;;;3.63;;
12871;SDS011;6504;53.766;9.626;2022-11-20T07:35:46;4.43;;;4.00;;
12871;SDS011;6504;53.766;9.626;2022-11-20T07:38:14;4.37;;;3.97;;
12871;SDS011;6504;53.766;9.626;2022-11-20T07:40:42;4.20;;;3.90;;
12871;SDS011;6504;53.766;9.626;2022-11-20T07:43:10;3.80;;;3.30;;
12871;SDS011;6504;53.766;9.626;2022-11-20T07:45:38;3.80;;;3.50;;
12871;SDS011;6504;53.766;9.626;2022-11-20T07:48:07;4.60;;;3.47;;
12871;SDS011;6504;53.766;9.626;2022-11-20T07:50:35;4.30;;;3.90;;
12871;SDS011;6504;53.766;9.626;2022-11-20T07:53:04;3.60;;;3.30;;
12871;SDS011;6504;53.766;9.626;2022-11-20T07:55:32;4.67;;;3.93;;
12871;SDS011;6504;53.766;9.626;2022-11-20T07:58:00;4.07;;;3.67;;
12871;SDS011;6504;53.766;9.626;2022-11-20T08:00:28;4.17;;;3.50;;
12871;SDS011;6504;53.766;9.626;2022-11-20T08:02:57;4.87;;;4.43;;
12871;SDS011;6504;53.766;9.626;2022-11-20T08:05:26;5.27;;;4.77;;
12871;SDS011;6504;53.766;9.626;2022-11-20T08:07:54;5.03;;;4.60;;
12871;SDS011;6504;53.766;9.626;2022-11-20T08:10:22;4.63;;;4.20;;
12871;SDS011;6504;53.766;9.626;2022-11-20T08:12:51;4.97;;;4.47;;
12871;SDS011;6504;53.766;9.626;2022-11-20T08:15:38;5.30;;;4.50;;
12871;SDS011;6504;53.766;9.626;2022-11-20T08:18:08;5.53;;;3.80;;
12871;SDS011;6504;53.766;9.626;2022-11-20T08:21:00;4.53;;;3.93;;
12871;SDS011;6504;53.766;9.626;2022-11-20T08:23:29;4.50;;;4.00;;
12871;SDS011;6504;53.766;9.626;2022-11-20T08:25:58;4.60;;;4.20;;
12871;SDS011;6504;53.766;9.626;2022-11-20T08:28:26;4.67;;;4.27;;
12871;SDS011;6504;53.766;9.626;2022-11-20T08:30:57;4.87;;;4.37;;
12871;SDS011;6504;53.766;9.626;2022-11-20T08:33:26;5.30;;;4.00;;
12871;SDS011;6504;53.766;9.626;2022-11-20T08:35:59;5.10;;;4.47;;
12871;SDS011;6504;53.766;9.626;2022-11-20T08:38:27;4.13;;;3.83;;
12871;SDS011;6504;53.766;9.626;2022-11-20T08:40:56;4.30;;;4.00;;
12871;SDS011;6504;53.766;9.626;2022-11-20T08:43:42;4.90;;;4.50;;
12871;SDS011;6504;53.766;9.626;2022-11-20T08:46:10;4.33;;;3.93;;
12871;SDS011;6504;53.766;9.626;2022-11-20T08:48:39;4.40;;;4.10;;
12871;SDS011;6504;53.766;9.626;2022-11-20T08:51:09;5.33;;;4.60;;
12871;SDS011;6504;53.766;9.626;2022-11-20T08:53:37;4.57;;;4.23;;
12871;SDS011;6504;53.766;9.626;2022-11-20T08:56:06;4.83;;;4.43;;
12871;SDS011;6504;53.766;9.626;2022-11-20T08:58:35;5.93;;;4.93;;
12871;SDS011;6504;53.766;9.626;2022-11-20T09:01:24;8.33;;;7.47;;
12871;SDS011;6504;53.766;9.626;2022-11-20T09:03:52;7.07;;;6.43;;
12871;SDS011;6504;53.766;9.626;2022-11-20T09:06:23;6.97;;;6.37;;
12871;SDS011;6504;53.766;9.626;2022-11-20T09:08:51;5.97;;;5.47;;
12871;SDS011;6504;53.766;9.626;2022-11-20T09:11:19;4.97;;;4.57;;
12871;SDS011;6504;53.766;9.626;2022-11-20T09:13:48;5.47;;;5.07;;
12871;SDS011;6504;53.766;9.626;2022-11-20T09:16:16;5.30;;;4.90;;
12871;SDS011;6504;53.766;9.626;2022-11-20T09:18:44;4.73;;;4.30;;
12871;SDS011;6504;53.766;9.626;2022-11-20T09:21:28;4.73;;;4.33;;
12871;SDS011;6504;53.766;9.626;2022-11-20T09:23:56;4.70;;;4.40;;
12871;SDS011;6504;53.766;9.626;2022-11-20T09:26:24;4.37;;;4.07;;
12871;SDS011;6504;53.766;9.626;2022-11-20T09:28:52;5.70;;;5.20;;
12871;SDS011;6504;53.766;9.626;2022-11-20T09:31:23;4.73;;;4.33;;
12871;SDS011;6504;53.766;9.626;2022-11-20T09:33:53;5.43;;;4.93;;
12871;SDS011;6504;53.766;9.626;2022-11-20T09:36:21;4.90;;;4.50;;
12871;SDS011;6504;53.766;9.626;2022-11-20T09:38:50;5.60;;;5.10;;
12871;SDS011;6504;53.766;9.626;2022-11-20T09:41:31;5.00;;;4.60;;
12871;SDS011;6504;53.766;9.626;2022-11-20T09:44:09;7.63;;;5.17;;
12871;SDS011;6504;53.766;9.626;2022-11-20T09:46:45;5.03;;;4.63;;
12871;SDS011;6504;53.766;9.626;2022-11-20T09:49:23;5.73;;;5.23;;
12871;SDS011;6504;53.766;9.626;2022-11-20T09:52:01;5.37;;;4.87;;
12871;SDS011;6504;53.766;9.626;2022-11-20T09:54:40;5.93;;;5.43;;
12871;SDS011;6504;53.766;9.626;2022-11-20T09:57:09;6.67;;;5.23;;
12871;SDS011;6504;53.766;9.626;2022-11-20T09:59:40;5.67;;;5.27;;
12871;SDS011;6504;53.766;9.626;2022-11-20T10:02:15;6.53;;;5.83;;
12871;SDS011;6504;53.766;9.626;2022-11-20T10:04:55;6.47;;;5.40;;
12871;SDS011;6504;53.766;9.626;2022-11-20T10:07:30;5.97;;;5.40;;
12871;SDS011;6504;53.766;9.626;2022-11-20T10:10:14;8.03;;;6.20;;
12871;SDS011;6504;53.766;9.626;2022-11-20T10:12:49;6.10;;;5.60;;
12871;SDS011;6504;53.766;9.626;2022-11-20T10:15:31;5.53;;;4.80;;
12871;SDS011;6504;53.766;9.626;2022-11-20T10:18:09;6.17;;;5.67;;
12871;SDS011;6504;53.766;9.626;2022-11-20T10:20:46;6.20;;;5.70;;
12871;SDS011;6504;53.766;9.626;2022-11-20T10:23:28;5.43;;;4.93;;
12871;SDS011;6504;53.766;9.626;2022-11-20T10:26:12;5.30;;;4.90;;
12871;SDS011;6504;53.766;9.626;2022-11-20T10:28:51;6.07;;;5.50;;
12871;SDS011;6504;53.766;9.626;2022-11-20T10:31:34;5.60;;;5.10;;
12871;SDS011;6504;53.766;9.626;2022-11-20T10:34:05;5.27;;;4.87;;
12871;SDS011;6504;53.766;9.626;2022-11-20T10:36:46;5.27;;;4.77;;
12871;SDS011;6504;53.766;9.626;2022-11-20T10:39:22;5.40;;;5.00;;
12871;SDS011;6504;53.766;9.626;2022-11-20T10:41:57;5.43;;;5.03;;
12871;SDS011;6504;53.766;9.626;2022-11-20T10:44:27;6.40;;;5.13;;
12871;SDS011;6504;53.766;9.626;2022-11-20T10:47:19;5.30;;;4.80;;
12871;SDS011;6504;53.766;9.626;2022-11-20T10:49:48;5.63;;;5.13;;
12871;SDS011;6504;53.766;9.626;2022-11-20T10:52:21;4.90;;;4.50;;
12871;SDS011;6504;53.766;9.626;2022-11-20T10:54:57;5.30;;;4.90;;
12871;SDS011;6504;53.766;9.626;2022-11-20T10:57:39;5.70;;;5.20;;
12871;SDS011;6504;53.766;9.626;2022-11-20T11:00:18;5.23;;;4.80;;
12871;SDS011;6504;53.766;9.626;2022-11-20T11:02:47;5.40;;;4.90;;
12871;SDS011;6504;53.766;9.626;2022-11-20T11:05:18;5.67;;;5.17;;
12871;SDS011;6504;53.766;9.626;2022-11-20T11:07:52;5.43;;;4.93;;
12871;SDS011;6504;53.766;9.626;2022-11-20T11:10:24;5.80;;;5.20;;
12871;SDS011;6504;53.766;9.626;2022-11-20T11:12:57;6.17;;;5.67;;
12871;SDS011;6504;53.766;9.626;2022-11-20T11:15:26;5.83;;;5.30;;
12871;SDS011;6504;53.766;9.626;2022-11-20T11:17:56;6.00;;;5.50;;
12871;SDS011;6504;53.766;9.626;2022-11-20T11:20:24;6.30;;;5.70;;
12871;SDS011;6504;53.766;9.626;2022-11-20T11:22:53;5.57;;;5.03;;
12871;SDS011;6504;53.766;9.626;2022-11-20T11:25:24;6.03;;;5.47;;
12871;SDS011;6504;53.766;9.626;2022-11-20T11:27:55;5.67;;;5.27;;
12871;SDS011;6504;53.766;9.626;2022-11-20T11:30:27;5.87;;;5.37;;
12871;SDS011;6504;53.766;9.626;2022-11-20T11:33:05;5.47;;;4.97;;
12871;SDS011;6504;53.766;9.626;2022-11-20T11:35:39;6.20;;;5.70;;
12871;SDS011;6504;53.766;9.626;2022-11-20T11:38:17;6.07;;;5.53;;
12871;SDS011;6504;53.766;9.626;2022-11-20T11:40:49;5.77;;;5.27;;
12871;SDS011;6504;53.766;9.626;2022-11-20T11:43:22;6.40;;;5.80;;
12871;SDS011;6504;53.766;9.626;2022-11-20T11:46:19;4.57;;;4.17;;
12871;SDS011;6504;53.766;9.626;2022-11-20T11:48:56;5.63;;;4.93;;
12871;SDS011;6504;53.766;9.626;2022-11-20T11:51:26;4.03;;;3.63;;
12871;SDS011;6504;53.766;9.626;2022-11-20T11:54:00;4.17;;;3.87;;
12871;SDS011;6504;53.766;9.626;2022-11-20T11:56:30;4.00;;;3.70;;
12871;SDS011;6504;53.766;9.626;2022-11-20T11:59:02;4.30;;;3.90;;
12871;SDS011;6504;53.766;9.626;2022-11-20T12:01:34;4.30;;;3.90;;
12871;SDS011;6504;53.766;9.626;2022-11-20T12:04:13;4.30;;;3.67;;
12871;SDS011;6504;53.766;9.626;2022-11-20T12:06:48;3.43;;;3.20;;
12871;SDS011;6504;53.766;9.626;2022-11-20T12:09:21;3.73;;;3.43;;
12871;SDS011;6504;53.766;9.626;2022-11-20T12:12:04;4.43;;;4.03;;
12871;SDS011;6504;53.766;9.626;2022-11-20T12:14:37;3.77;;;3.47;;
12871;SDS011;6504;53.766;9.626;2022-11-20T12:17:09;4.07;;;3.77;;
12871;SDS011;6504;53.766;9.626;2022-11-20T12:19:39;4.00;;;3.70;;
12871;SDS011;6504;53.766;9.626;2022-11-20T12:22:11;5.07;;;4.63;;
12871;SDS011;6504;53.766;9.626;2022-11-20T12:24:52;4.13;;;3.80;;
12871;SDS011;6504;53.766;9.626;2022-11-20T12:30:20;3.73;;;3.43;;
12871;SDS011;6504;53.766;9.626;2022-11-20T12:35:55;4.33;;;3.40;;
12871;SDS011;6504;53.766;9.626;2022-11-20T12:38:45;3.30;;;3.10;;
12871;SDS011;6504;53.766;9.626;2022-11-20T12:41:46;3.60;;;3.30;;
12871;SDS011;6504;53.766;9.626;2022-11-20T12:44:51;4.10;;;3.80;;
12871;SDS011;6504;53.766;9.626;2022-11-20T12:47:42;3.27;;;3.00;;
12871;SDS011;6504;53.766;9.626;2022-11-20T12:50:22;8.73;;;8.03;;
12871;SDS011;6504;53.766;9.626;2022-11-20T12:53:16;6.10;;;5.60;;
12871;SDS011;6504;53.766;9.626;2022-11-20T12:55:54;3.50;;;3.20;;
12871;SDS011;6504;53.766;9.626;2022-11-20T12:58:31;3.57;;;3.27;;
12871;SDS011;6504;53.766;9.626;2022-11-20T13:01:09;3.37;;;3.07;;
12871;SDS011;6504;53.766;9.626;2022-11-20T13:04:08;3.57;;;3.27;;
12871;SDS011;6504;53.766;9.626;2022-11-20T13:06:46;3.80;;;3.30;;
12871;SDS011;6504;53.766;9.626;2022-11-20T13:09:15;4.17;;;3.87;;
12871;SDS011;6504;53.766;9.626;2022-11-20T13:11:48;6.17;;;5.67;;
12871;SDS011;6504;53.766;9.626;2022-11-20T13:14:29;4.60;;;4.30;;
12871;SDS011;6504;53.766;9.626;2022-11-20T13:17:04;6.47;;;5.97;;
12871;SDS011;6504;53.766;9.626;2022-11-20T13:19:38;4.37;;;3.97;;
12871;SDS011;6504;53.766;9.626;2022-11-20T13:22:07;3.10;;;2.90;;
12871;SDS011;6504;53.766;9.626;2022-11-20T13:24:36;3.00;;;2.80;;
12871;SDS011;6504;53.766;9.626;2022-11-20T13:27:05;3.33;;;3.03;;
12871;SDS011;6504;53.766;9.626;2022-11-20T13:29:47;3.20;;;2.90;;
12871;SDS011;6504;53.766;9.626;2022-11-20T13:32:47;3.07;;;2.80;;
12871;SDS011;6504;53.766;9.626;2022-11-20T13:35:25;3.00;;;2.80;;
12871;SDS011;6504;53.766;9.626;2022-11-20T13:38:05;3.03;;;2.83;;
12871;SDS011;6504;53.766;9.626;2022-11-20T13:40:35;2.70;;;2.50;;
12871;SDS011;6504;53.766;9.626;2022-11-20T13:43:15;2.93;;;2.73;;
12871;SDS011;6504;53.766;9.626;2022-11-20T13:45:58;2.87;;;2.67;;
12871;SDS011;6504;53.766;9.626;2022-11-20T13:48:29;3.00;;;2.60;;
12871;SDS011;6504;53.766;9.626;2022-11-20T13:51:06;3.30;;;3.00;;
12871;SDS011;6504;53.766;9.626;2022-11-20T13:53:47;3.53;;;3.33;;
12871;SDS011;6504;53.766;9.626;2022-11-20T13:56:34;4.07;;;3.50;;
12871;SDS011;6504;53.766;9.626;2022-11-20T13:59:12;4.17;;;3.87;;
12871;SDS011;6504;53.766;9.626;2022-11-20T14:01:54;3.93;;;3.63;;
12871;SDS011;6504;53.766;9.626;2022-11-20T14:04:25;3.83;;;3.53;;
12871;SDS011;6504;53.766;9.626;2022-11-20T14:06:57;4.20;;;3.80;;
12871;SDS011;6504;53.766;9.626;2022-11-20T14:09:26;3.70;;;3.40;;
12871;SDS011;6504;53.766;9.626;2022-11-20T14:11:56;4.00;;;3.63;;
12871;SDS011;6504;53.766;9.626;2022-11-20T14:14:24;4.30;;;3.90;;
12871;SDS011;6504;53.766;9.626;2022-11-20T14:16:53;4.30;;;3.90;;
12871;SDS011;6504;53.766;9.626;2022-11-20T14:19:33;3.80;;;3.50;;
12871;SDS011;6504;53.766;9.626;2022-11-20T14:22:08;3.87;;;3.57;;
12871;SDS011;6504;53.766;9.626;2022-11-20T14:24:43;4.60;;;3.77;;
12871;SDS011;6504;53.766;9.626;2022-11-20T14:27:12;3.87;;;3.57;;
12871;SDS011;6504;53.766;9.626;2022-11-20T14:29:42;3.47;;;3.20;;
12871;SDS011;6504;53.766;9.626;2022-11-20T14:32:12;3.87;;;3.57;;
12871;SDS011;6504;53.766;9.626;2022-11-20T14:34:44;3.03;;;2.83;;
12871;SDS011;6504;53.766;9.626;2022-11-20T14:37:18;3.57;;;3.27;;
12871;SDS011;6504;53.766;9.626;2022-11-20T14:39:49;3.60;;;3.30;;
12871;SDS011;6504;53.766;9.626;2022-11-20T14:42:19;3.97;;;3.57;;
12871;SDS011;6504;53.766;9.626;2022-11-20T14:44:49;4.50;;;4.10;;
12871;SDS011;6504;53.766;9.626;2022-11-20T14:47:19;4.50;;;4.10;;
12871;SDS011;6504;53.766;9.626;2022-11-20T14:49:51;4.20;;;3.90;;
12871;SDS011;6504;53.766;9.626;2022-11-20T14:52:21;5.47;;;4.97;;
12871;SDS011;6504;53.766;9.626;2022-11-20T14:54:51;5.40;;;4.90;;
12871;SDS011;6504;53.766;9.626;2022-11-20T14:57:21;6.27;;;5.70;;
12871;SDS011;6504;53.766;9.626;2022-11-20T15:00:02;5.80;;;5.30;;
12871;SDS011;6504;53.766;9.626;2022-11-20T15:02:38;5.90;;;5.40;;
12871;SDS011;6504;53.766;9.626;2022-11-20T15:05:09;5.90;;;5.40;;
12871;SDS011;6504;53.766;9.626;2022-11-20T15:07:39;6.67;;;6.07;;
12871;SDS011;6504;53.766;9.626;2022-11-20T15:10:12;7.73;;;6.97;;
12871;SDS011;6504;53.766;9.626;2022-11-20T15:12:47;6.47;;;5.93;;
12871;SDS011;6504;53.766;9.626;2022-11-20T15:15:17;7.60;;;6.87;;
12871;SDS011;6504;53.766;9.626;2022-11-20T15:17:50;8.37;;;6.80;;
12871;SDS011;6504;53.766;9.626;2022-11-20T15:20:18;6.53;;;5.93;;
12871;SDS011;6504;53.766;9.626;2022-11-20T15:22:50;6.50;;;5.90;;
12871;SDS011;6504;53.766;9.626;2022-11-20T15:25:18;5.07;;;4.67;;
12871;SDS011;6504;53.766;9.626;2022-11-20T15:27:48;6.53;;;6.00;;
12871;SDS011;6504;53.766;9.626;2022-11-20T15:30:19;6.93;;;6.33;;
12871;SDS011;6504;53.766;9.626;2022-11-20T15:32:48;6.73;;;6.13;;
12871;SDS011;6504;53.766;9.626;2022-11-20T15:35:16;5.43;;;5.03;;